Time;durP1;ratioP1;P1;durP2;ratioP2;P2;SDS_P1;SDS_P2;PMS_P1;PMS_P2;Temp;Humidity;BMP_temperature;BMP_pressure;BME280_temperature;BME280_humidity;BME280_pressure;Samples;Min_cycle;Max_cycle;Signal;HPM_P1;HPM_P2
2021/06/22 00:01:32;;;;;;;;;0.25;0.25;;;;;;;;5071153;27;45401;-76
2021/06/22 00:03:57;;;;;;;;;0.00;0.00;;;;;;;;5080300;27;46112;-75
2021/06/22 00:06:23;;;;;;;;;0.75;0.75;;;;;;;;5082377;27;45386;-76
2021/06/22 00:08:48;;;;;;;;;0.00;0.00;;;;;;;;5069690;27;45462;-75
2021/06/22 00:11:13;;;;;;;;;0.00;0.00;;;;;;;;5071657;27;45615;-76
2021/06/22 00:13:38;;;;;;;;;1.00;0.00;;;;;;;;5076553;27;45590;-76
2021/06/22 00:16:04;;;;;;;;;1.00;1.00;;;;;;;;5072497;27;45580;-75
2021/06/22 00:18:29;;;;;;;;;1.00;1.00;;;;;;;;5081929;27;45432;-75
2021/06/22 00:20:54;;;;;;;;;2.00;0.00;;;;;;;;5072722;27;45676;-76
2021/06/22 00:23:20;;;;;;;;;0.00;0.00;;;;;;;;5073060;27;47369;-76
2021/06/22 00:25:45;;;;;;;;;0.00;0.00;;;;;;;;5072680;27;45593;-75
2021/06/22 00:28:10;;;;;;;;;0.00;0.00;;;;;;;;5073778;27;45488;-75
2021/06/22 00:30:35;;;;;;;;;0.00;0.00;;;;;;;;5080485;27;45448;-75
2021/06/22 00:33:01;;;;;;;;;0.00;0.00;;;;;;;;5074466;27;46041;-75
2021/06/22 00:35:26;;;;;;;;;0.33;0.33;;;;;;;;5076229;27;45554;-75
2021/06/22 00:37:51;;;;;;;;;1.00;1.00;;;;;;;;5075913;27;45500;-78
2021/06/22 00:40:17;;;;;;;;;1.00;1.00;;;;;;;;5076502;27;45348;-77
2021/06/22 00:42:43;;;;;;;;;1.00;1.00;;;;;;;;5075535;27;46070;-77
2021/06/22 00:45:09;;;;;;;;;0.75;0.75;;;;;;;;5075604;27;45895;-76
2021/06/22 00:47:35;;;;;;;;;0.25;0.25;;;;;;;;5073418;27;45560;-76
2021/06/22 00:50:00;;;;;;;;;1.00;1.00;;;;;;;;5075747;27;45788;-77
2021/06/22 00:52:26;;;;;;;;;1.00;1.00;;;;;;;;5075483;27;45421;-75
2021/06/22 00:54:52;;;;;;;;;1.50;1.00;;;;;;;;5080683;27;45460;-76
2021/06/22 00:57:18;;;;;;;;;0.75;0.75;;;;;;;;5084624;27;45400;-77
2021/06/22 00:59:43;;;;;;;;;1.00;1.00;;;;;;;;5076622;27;45401;-76
2021/06/22 01:02:08;;;;;;;;;4.00;1.00;;;;;;;;5073190;27;47041;-77
2021/06/22 01:04:34;;;;;;;;;1.25;1.25;;;;;;;;5078884;27;45335;-77
2021/06/22 01:07:01;;;;;;;;;2.00;2.00;;;;;;;;5072772;27;45548;-77
2021/06/22 01:09:29;;;;;;;;;2.50;2.25;;;;;;;;5077547;27;45434;-78
2021/06/22 01:11:59;;;;;;;;;4.75;3.00;;;;;;;;5079210;27;45483;-76
2021/06/22 01:14:25;;;;;;;;;4.50;2.00;;;;;;;;5076459;27;45448;-77
2021/06/22 01:16:50;;;;;;;;;3.00;3.00;;;;;;;;5082860;27;45520;-77
2021/06/22 01:19:15;;;;;;;;;3.00;3.00;;;;;;;;5074290;27;45466;-76
2021/06/22 01:21:41;;;;;;;;;2.00;2.00;;;;;;;;5077723;27;45957;-77
2021/06/22 01:24:10;;;;;;;;;5.75;2.50;;;;;;;;5076600;27;45990;-76
2021/06/22 01:26:37;;;;;;;;;3.75;2.75;;;;;;;;5076064;27;45307;-77
2021/06/22 01:29:03;;;;;;;;;3.50;2.50;;;;;;;;5080434;27;45497;-76
2021/06/22 01:31:28;;;;;;;;;2.50;2.00;;;;;;;;5076847;27;46241;-77
2021/06/22 01:33:53;;;;;;;;;2.25;2.25;;;;;;;;5074258;27;45590;-77
2021/06/22 01:36:19;;;;;;;;;4.00;4.00;;;;;;;;5076679;27;45354;-76
2021/06/22 01:38:45;;;;;;;;;3.00;3.00;;;;;;;;5078101;27;45476;-77
2021/06/22 01:41:10;;;;;;;;;2.00;2.00;;;;;;;;5074649;27;50591;-77
2021/06/22 01:43:35;;;;;;;;;4.00;2.33;;;;;;;;5071248;27;45822;-76
2021/06/22 01:46:00;;;;;;;;;2.33;2.33;;;;;;;;5073757;27;45543;-77
2021/06/22 01:48:26;;;;;;;;;4.00;2.00;;;;;;;;5075334;27;45456;-77
2021/06/22 01:50:51;;;;;;;;;3.25;2.00;;;;;;;;5074976;27;45368;-77
2021/06/22 01:53:16;;;;;;;;;4.00;2.00;;;;;;;;5072865;27;45482;-76
2021/06/22 01:55:43;;;;;;;;;5.00;3.00;;;;;;;;5079641;27;45761;-76
2021/06/22 01:58:11;;;;;;;;;4.75;3.75;;;;;;;;5075967;27;45569;-77
2021/06/22 02:00:37;;;;;;;;;2.75;2.75;;;;;;;;5072059;27;45532;-76
2021/06/22 02:03:02;;;;;;;;;3.50;3.25;;;;;;;;5072483;27;45445;-76
2021/06/22 02:05:28;;;;;;;;;2.50;2.50;;;;;;;;5074212;27;45411;-77
2021/06/22 02:07:53;;;;;;;;;6.33;3.00;;;;;;;;5078611;27;45399;-76
2021/06/22 02:10:18;;;;;;;;;3.00;3.00;;;;;;;;5084984;27;45523;-77
2021/06/22 02:12:43;;;;;;;;;3.33;3.33;;;;;;;;5076062;27;45566;-77
2021/06/22 02:15:09;;;;;;;;;3.00;3.00;;;;;;;;5082647;27;45259;-76
2021/06/22 02:17:35;;;;;;;;;3.00;3.00;;;;;;;;5077729;27;45508;-76
2021/06/22 02:20:00;;;;;;;;;3.00;3.00;;;;;;;;5071176;27;45787;-77
2021/06/22 02:22:25;;;;;;;;;3.50;3.25;;;;;;;;5077530;27;45457;-76
2021/06/22 02:24:51;;;;;;;;;3.67;3.00;;;;;;;;5078606;27;45509;-76
2021/06/22 02:27:30;;;;;;;;;3.00;3.00;;;;;;;;5074967;27;47347;-76
2021/06/22 02:29:56;;;;;;;;;5.00;4.25;;;;;;;;5074051;27;45433;-76
2021/06/22 02:32:21;;;;;;;;;3.00;3.00;;;;;;;;5073020;27;45342;-76
2021/06/22 02:34:47;;;;;;;;;5.50;4.75;;;;;;;;5073912;27;45439;-77
2021/06/22 02:37:12;;;;;;;;;3.00;3.00;;;;;;;;5080771;27;45612;-76
2021/06/22 02:39:38;;;;;;;;;5.50;4.00;;;;;;;;5074277;27;46544;-76
2021/06/22 02:42:03;;;;;;;;;3.67;3.67;;;;;;;;5073535;27;45488;-76
2021/06/22 02:44:28;;;;;;;;;6.00;4.00;;;;;;;;5074159;27;45464;-76
2021/06/22 02:46:54;;;;;;;;;6.00;4.67;;;;;;;;5080236;27;45569;-76
2021/06/22 02:49:19;;;;;;;;;5.33;5.00;;;;;;;;5074308;27;45435;-77
2021/06/22 02:51:44;;;;;;;;;6.33;5.00;;;;;;;;5074255;27;45578;-76
2021/06/22 02:54:09;;;;;;;;;4.50;3.50;;;;;;;;5074133;27;45504;-76
2021/06/22 02:56:34;;;;;;;;;7.00;4.33;;;;;;;;5070712;27;45456;-76
2021/06/22 02:59:00;;;;;;;;;4.67;4.67;;;;;;;;5069639;27;45539;-76
2021/06/22 03:01:25;;;;;;;;;4.00;4.00;;;;;;;;5073554;27;45541;-76
2021/06/22 03:03:50;;;;;;;;;6.00;4.33;;;;;;;;5073138;27;45518;-76
2021/06/22 03:06:15;;;;;;;;;5.33;5.33;;;;;;;;5074341;27;45480;-77
2021/06/22 03:08:41;;;;;;;;;5.00;5.00;;;;;;;;5071387;27;46849;-78
2021/06/22 03:11:06;;;;;;;;;4.00;4.00;;;;;;;;5071507;27;45445;-77
2021/06/22 03:13:31;;;;;;;;;8.00;5.33;;;;;;;;5081877;27;46814;-77
2021/06/22 03:15:56;;;;;;;;;5.00;4.00;;;;;;;;5079459;27;45452;-77
2021/06/22 03:18:22;;;;;;;;;4.33;4.33;;;;;;;;5085257;27;46169;-78
2021/06/22 03:20:47;;;;;;;;;6.67;5.33;;;;;;;;5077640;27;45513;-78
2021/06/22 03:23:12;;;;;;;;;5.00;5.00;;;;;;;;5078796;27;45474;-77
2021/06/22 03:25:37;;;;;;;;;7.33;5.00;;;;;;;;5082042;27;45412;-78
2021/06/22 03:28:03;;;;;;;;;9.00;6.67;;;;;;;;5068485;27;46046;-78
2021/06/22 03:30:29;;;;;;;;;9.75;7.00;;;;;;;;5067674;27;45318;-79
2021/06/22 03:32:54;;;;;;;;;9.75;8.25;;;;;;;;5071015;27;46146;-77
2021/06/22 03:35:19;;;;;;;;;5.67;5.67;;;;;;;;5072272;27;45457;-79
2021/06/22 03:37:45;;;;;;;;;8.67;8.00;;;;;;;;5074302;27;45986;-79
2021/06/22 03:40:10;;;;;;;;;11.00;8.00;;;;;;;;5076737;27;45549;-78
2021/06/22 03:42:36;;;;;;;;;8.25;7.00;;;;;;;;5079717;27;45484;-78
2021/06/22 03:45:03;;;;;;;;;9.25;7.75;;;;;;;;5080099;27;45614;-78
2021/06/22 03:47:28;;;;;;;;;7.00;7.00;;;;;;;;5077631;27;46604;-78
2021/06/22 03:49:54;;;;;;;;;11.00;8.00;;;;;;;;5075574;27;45482;-78
2021/06/22 03:52:19;;;;;;;;;12.67;11.00;;;;;;;;5084104;27;45397;-78
2021/06/22 03:54:44;;;;;;;;;11.67;10.00;;;;;;;;5084320;27;45541;-79
2021/06/22 03:57:09;;;;;;;;;14.25;12.75;;;;;;;;5083455;27;45365;-78
2021/06/22 03:59:35;;;;;;;;;18.33;15.67;;;;;;;;5077621;27;45545;-79
2021/06/22 04:02:00;;;;;;;;;16.67;12.67;;;;;;;;5073226;27;45404;-78
2021/06/22 04:04:25;;;;;;;;;15.67;14.00;;;;;;;;5078514;27;45465;-77
2021/06/22 04:06:50;;;;;;;;;15.00;15.00;;;;;;;;5074858;27;46123;-78
2021/06/22 04:09:16;;;;;;;;;21.67;17.33;;;;;;;;5075959;27;45510;-79
2021/06/22 04:11:41;;;;;;;;;17.75;16.50;;;;;;;;5079468;27;45776;-77
2021/06/22 04:14:06;;;;;;;;;16.25;13.75;;;;;;;;5079938;27;45346;-77
2021/06/22 04:16:32;;;;;;;;;21.25;16.25;;;;;;;;5086070;27;47099;-76
2021/06/22 04:18:57;;;;;;;;;19.00;15.67;;;;;;;;5084415;27;45824;-78
2021/06/22 04:21:22;;;;;;;;;17.33;15.33;;;;;;;;5076942;27;45543;-76
2021/06/22 04:23:47;;;;;;;;;21.33;15.00;;;;;;;;5080802;27;45465;-76
2021/06/22 04:26:12;;;;;;;;;14.67;14.67;;;;;;;;5080323;27;46106;-77
2021/06/22 04:28:38;;;;;;;;;21.00;18.00;;;;;;;;5083884;27;45551;-76
2021/06/22 04:31:03;;;;;;;;;15.00;15.00;;;;;;;;5084354;27;45559;-76
2021/06/22 04:33:28;;;;;;;;;22.33;17.00;;;;;;;;5087172;27;45434;-77
2021/06/22 04:35:54;;;;;;;;;16.75;15.50;;;;;;;;5074869;27;45639;-77
2021/06/22 04:38:19;;;;;;;;;17.00;14.75;;;;;;;;5075920;27;45460;-77
2021/06/22 04:40:45;;;;;;;;;18.75;17.00;;;;;;;;5081278;27;45659;-60
2021/06/22 04:43:10;;;;;;;;;16.33;12.67;;;;;;;;5073902;27;45532;-69
2021/06/22 04:45:36;;;;;;;;;16.67;14.67;;;;;;;;5066720;27;46236;-65
2021/06/22 04:48:01;;;;;;;;;20.25;16.75;;;;;;;;5070095;27;45456;-66
2021/06/22 04:50:27;;;;;;;;;23.50;14.00;;;;;;;;5068259;27;45535;-66
2021/06/22 04:52:52;;;;;;;;;17.00;15.00;;;;;;;;5073489;28;46636;-65
2021/06/22 04:55:22;;;;;;;;;22.00;16.75;;;;;;;;5073778;27;46199;-65
2021/06/22 04:57:47;;;;;;;;;23.00;16.00;;;;;;;;5075260;27;46037;-65
2021/06/22 05:00:13;;;;;;;;;18.33;15.00;;;;;;;;5076991;27;45384;-65
2021/06/22 05:02:42;;;;;;;;;17.00;16.75;;;;;;;;5073131;27;45584;-67
2021/06/22 05:05:08;;;;;;;;;15.50;14.00;;;;;;;;5072737;27;45542;-65
2021/06/22 05:07:33;;;;;;;;;18.25;16.75;;;;;;;;5074067;27;45766;-67
2021/06/22 05:09:58;;;;;;;;;16.33;15.33;;;;;;;;5075340;27;45515;-55
2021/06/22 05:12:24;;;;;;;;;19.50;15.25;;;;;;;;5076504;27;45379;-54
2021/06/22 05:14:49;;;;;;;;;17.00;16.00;;;;;;;;5075185;27;45616;-55
2021/06/22 05:17:14;;;;;;;;;15.50;15.00;;;;;;;;5073964;27;45350;-55
2021/06/22 05:19:40;;;;;;;;;17.50;15.25;;;;;;;;5074661;27;45645;-56
2021/06/22 05:22:05;;;;;;;;;13.50;13.00;;;;;;;;5074027;27;45797;-51
2021/06/22 05:24:30;;;;;;;;;18.50;14.25;;;;;;;;5073933;27;45625;-55
2021/06/22 05:26:56;;;;;;;;;17.75;15.25;;;;;;;;5077515;27;45842;-56
2021/06/22 05:29:21;;;;;;;;;15.33;13.33;;;;;;;;5073375;27;46238;-51
2021/06/22 05:31:46;;;;;;;;;14.00;12.00;;;;;;;;5081774;27;45407;-56
2021/06/22 05:34:11;;;;;;;;;14.75;14.75;;;;;;;;5081093;27;45445;-53
2021/06/22 05:36:37;;;;;;;;;15.50;14.00;;;;;;;;5081399;27;45468;-55
2021/06/22 05:39:02;;;;;;;;;16.00;14.75;;;;;;;;5081174;27;45446;-53
2021/06/22 05:41:27;;;;;;;;;17.75;14.25;;;;;;;;5077969;27;45487;-74
2021/06/22 05:43:53;;;;;;;;;16.00;14.67;;;;;;;;5082053;27;47396;-74
2021/06/22 05:46:18;;;;;;;;;14.00;11.75;;;;;;;;5082602;27;45469;-73
2021/06/22 05:48:43;;;;;;;;;13.67;12.33;;;;;;;;5083929;27;46652;-73
2021/06/22 05:51:08;;;;;;;;;14.00;11.33;;;;;;;;5074351;27;45328;-73
2021/06/22 05:53:34;;;;;;;;;11.00;11.00;;;;;;;;5063009;27;48275;-73
2021/06/22 05:55:59;;;;;;;;;12.00;12.00;;;;;;;;5057758;27;45549;-73
2021/06/22 05:58:24;;;;;;;;;14.33;13.00;;;;;;;;5064091;27;45865;-73
2021/06/22 06:00:49;;;;;;;;;13.33;12.67;;;;;;;;5074663;27;45665;-73
2021/06/22 06:03:14;;;;;;;;;14.33;12.33;;;;;;;;5078241;27;46067;-73
2021/06/22 06:05:40;;;;;;;;;16.33;15.33;;;;;;;;5076269;27;45589;-73
2021/06/22 06:08:05;;;;;;;;;19.33;15.33;;;;;;;;5071531;27;45523;-73
2021/06/22 06:10:32;;;;;;;;;10.50;10.50;;;;;;;;5082011;27;45546;-73
2021/06/22 06:12:57;;;;;;;;;16.50;14.75;;;;;;;;5082390;27;45517;-72
2021/06/22 06:15:22;;;;;;;;;14.00;10.67;;;;;;;;5084655;27;45451;-73
2021/06/22 06:17:47;;;;;;;;;21.33;15.33;;;;;;;;5072205;27;45517;-73
2021/06/22 06:20:14;;;;;;;;;14.33;13.00;;;;;;;;5072391;27;45511;-73
2021/06/22 06:22:41;;;;;;;;;15.50;10.25;;;;;;;;5082853;27;48204;-73
2021/06/22 06:25:07;;;;;;;;;14.00;12.00;;;;;;;;5081978;27;45857;-73
2021/06/22 06:30:19;;;;;;;;;15.25;13.50;;;;;;;;5082183;27;45343;-73
2021/06/22 06:32:45;;;;;;;;;18.75;13.50;;;;;;;;5076427;27;46162;-73
2021/06/22 06:35:11;;;;;;;;;15.00;12.75;;;;;;;;5077279;27;45367;-73
2021/06/22 06:37:36;;;;;;;;;15.25;13.25;;;;;;;;5081495;27;45499;-73
2021/06/22 06:40:01;;;;;;;;;19.33;14.67;;;;;;;;5079965;27;45788;-73
2021/06/22 06:42:26;;;;;;;;;16.25;13.25;;;;;;;;5080848;27;45409;-73
2021/06/22 06:44:52;;;;;;;;;19.00;13.33;;;;;;;;5077477;27;45299;-73
2021/06/22 06:47:17;;;;;;;;;16.75;13.50;;;;;;;;5023949;27;45720;-73
2021/06/22 06:49:43;;;;;;;;;11.00;11.00;;;;;;;;5088907;27;45482;-73
2021/06/22 06:52:08;;;;;;;;;14.50;12.25;;;;;;;;5057229;27;45556;-73
2021/06/22 06:54:34;;;;;;;;;17.00;12.67;;;;;;;;5060855;27;45493;-72
2021/06/22 06:56:59;;;;;;;;;13.75;13.25;;;;;;;;5078559;27;45442;-72
2021/06/22 06:59:24;;;;;;;;;14.75;13.75;;;;;;;;5078120;27;45480;-73
2021/06/22 07:01:50;;;;;;;;;14.67;13.67;;;;;;;;5071432;27;46171;-74
2021/06/22 07:04:15;;;;;;;;;17.00;15.75;;;;;;;;5081356;27;45611;-73
2021/06/22 07:06:40;;;;;;;;;14.00;12.33;;;;;;;;5084507;27;45660;-72
2021/06/22 07:09:06;;;;;;;;;16.00;14.33;;;;;;;;5078749;27;45673;-73
2021/06/22 07:11:31;;;;;;;;;16.50;14.75;;;;;;;;5076724;27;45436;-73
2021/06/22 07:13:57;;;;;;;;;14.50;13.00;;;;;;;;5073775;27;45452;-73
2021/06/22 07:16:22;;;;;;;;;18.50;13.50;;;;;;;;5071310;27;45523;-73
2021/06/22 07:18:47;;;;;;;;;16.67;16.33;;;;;;;;5082453;27;48849;-73
2021/06/22 07:21:13;;;;;;;;;16.25;14.75;;;;;;;;5076073;27;46145;-73
2021/06/22 07:23:40;;;;;;;;;18.25;15.25;;;;;;;;5073068;27;45958;-73
2021/06/22 07:26:05;;;;;;;;;16.75;14.00;;;;;;;;5072796;27;45618;-73
2021/06/22 07:28:30;;;;;;;;;20.67;18.33;;;;;;;;5072522;27;45514;-74
2021/06/22 07:30:55;;;;;;;;;18.33;15.67;;;;;;;;5077043;27;45471;-73
2021/06/22 07:33:21;;;;;;;;;16.33;15.00;;;;;;;;5082966;27;45512;-72
2021/06/22 07:35:46;;;;;;;;;15.75;14.75;;;;;;;;5072871;27;45493;-73
2021/06/22 07:38:11;;;;;;;;;17.25;13.75;;;;;;;;5070285;27;45331;-73
2021/06/22 07:40:37;;;;;;;;;13.33;13.33;;;;;;;;5075718;27;46214;-73
2021/06/22 07:43:03;;;;;;;;;14.00;14.00;;;;;;;;5077654;27;45413;-73
2021/06/22 07:45:28;;;;;;;;;16.75;14.25;;;;;;;;5066281;27;45515;-73
2021/06/22 07:47:55;;;;;;;;;16.25;14.50;;;;;;;;5070780;27;45407;-73
2021/06/22 07:50:20;;;;;;;;;13.25;13.25;;;;;;;;5070914;27;45385;-73
2021/06/22 07:52:45;;;;;;;;;14.75;14.25;;;;;;;;5079349;27;45531;-73
2021/06/22 07:55:13;;;;;;;;;16.00;15.67;;;;;;;;5081480;27;45473;-73
2021/06/22 07:57:46;;;;;;;;;20.75;16.25;;;;;;;;5083010;27;45360;-73
2021/06/22 08:00:24;;;;;;;;;23.25;21.25;;;;;;;;5075556;27;45523;-73
2021/06/22 08:02:49;;;;;;;;;24.25;17.75;;;;;;;;5071798;27;45450;-73
2021/06/22 08:05:14;;;;;;;;;25.00;22.33;;;;;;;;5070439;27;45504;-73
2021/06/22 08:07:39;;;;;;;;;25.67;20.67;;;;;;;;5079902;27;45388;-74
2021/06/22 08:10:05;;;;;;;;;22.00;16.67;;;;;;;;5081615;27;46389;-73
2021/06/22 08:12:30;;;;;;;;;24.75;18.25;;;;;;;;5081338;27;45805;-75
2021/06/22 08:14:55;;;;;;;;;27.00;23.00;;;;;;;;5077321;27;45404;-76
2021/06/22 08:17:20;;;;;;;;;22.33;20.67;;;;;;;;5074575;27;45684;-76
2021/06/22 08:19:46;;;;;;;;;21.67;21.00;;;;;;;;5077575;27;46841;-75
2021/06/22 08:22:11;;;;;;;;;26.00;21.33;;;;;;;;5079458;27;45439;-75
2021/06/22 08:24:36;;;;;;;;;26.00;21.00;;;;;;;;5069380;27;45679;-76
2021/06/22 08:27:01;;;;;;;;;23.75;21.75;;;;;;;;5077872;27;45885;-78
2021/06/22 08:29:27;;;;;;;;;17.75;17.00;;;;;;;;5053546;27;47227;-75
2021/06/22 08:31:52;;;;;;;;;13.00;13.00;;;;;;;;5069809;27;45513;-75
2021/06/22 08:34:17;;;;;;;;;10.25;10.00;;;;;;;;5069884;27;45473;-75
2021/06/22 08:36:42;;;;;;;;;10.67;8.00;;;;;;;;5073930;27;45498;-76
2021/06/22 08:39:08;;;;;;;;;9.00;8.33;;;;;;;;5067619;27;46184;-75
2021/06/22 08:41:33;;;;;;;;;10.00;9.00;;;;;;;;5069878;27;45432;-75
2021/06/22 08:44:00;;;;;;;;;7.50;6.25;;;;;;;;5071021;27;45398;-75
2021/06/22 08:46:25;;;;;;;;;30.00;26.25;;;;;;;;5081163;27;45374;-75
2021/06/22 08:48:51;;;;;;;;;25.75;22.25;;;;;;;;5067057;27;46544;-75
2021/06/22 08:51:18;;;;;;;;;15.75;13.25;;;;;;;;5084631;27;45409;-75
2021/06/22 08:53:43;;;;;;;;;13.50;12.25;;;;;;;;5077919;27;45691;-75
2021/06/22 08:56:08;;;;;;;;;13.00;12.50;;;;;;;;5070517;27;45490;-75
2021/06/22 08:58:33;;;;;;;;;10.25;9.75;;;;;;;;5074047;27;48275;-75
2021/06/22 09:00:59;;;;;;;;;10.67;9.67;;;;;;;;5061621;27;45592;-75
2021/06/22 09:03:26;;;;;;;;;8.67;7.67;;;;;;;;5082510;27;45508;-76
2021/06/22 09:05:55;;;;;;;;;6.00;6.00;;;;;;;;5070088;27;45502;-76
2021/06/22 09:08:28;;;;;;;;;5.00;5.00;;;;;;;;5075936;27;46314;-76
2021/06/22 09:11:04;;;;;;;;;5.50;4.00;;;;;;;;5080518;27;45436;-75
2021/06/22 09:13:30;;;;;;;;;7.75;6.50;;;;;;;;5084351;27;45260;-77
2021/06/22 09:15:56;;;;;;;;;7.00;7.00;;;;;;;;5077065;27;45501;-75
2021/06/22 09:18:28;;;;;;;;;14.00;11.33;;;;;;;;5085821;27;45981;-76
2021/06/22 09:20:55;;;;;;;;;11.75;11.00;;;;;;;;5079791;27;46009;-76
2021/06/22 09:23:21;;;;;;;;;29.00;23.25;;;;;;;;5077158;27;45319;-76
2021/06/22 09:25:47;;;;;;;;;9.50;6.25;;;;;;;;5082943;27;45733;-75
2021/06/22 09:28:14;;;;;;;;;7.75;7.75;;;;;;;;5082043;27;45520;-75
2021/06/22 09:30:39;;;;;;;;;8.25;7.00;;;;;;;;5083756;27;46033;-75
2021/06/22 09:33:23;;;;;;;;;8.75;7.00;;;;;;;;5081878;27;45609;-76
2021/06/22 09:35:50;;;;;;;;;6.25;6.25;;;;;;;;5077550;27;45655;-75
2021/06/22 09:38:16;;;;;;;;;6.75;6.00;;;;;;;;5078190;27;47410;-75
2021/06/22 09:40:41;;;;;;;;;8.00;6.50;;;;;;;;5077041;27;45958;-76
2021/06/22 09:43:07;;;;;;;;;6.75;5.00;;;;;;;;5083708;27;46019;-75
2021/06/22 09:45:32;;;;;;;;;9.00;6.00;;;;;;;;5082334;27;45421;-75
2021/06/22 09:48:02;;;;;;;;;7.33;7.00;;;;;;;;5079713;27;45433;-75
2021/06/22 09:50:39;;;;;;;;;8.25;6.25;;;;;;;;5077195;27;45751;-75
2021/06/22 09:53:23;;;;;;;;;10.25;6.25;;;;;;;;5068486;27;45596;-76
2021/06/22 09:55:48;;;;;;;;;9.25;8.00;;;;;;;;5067790;27;45590;-75
2021/06/22 09:58:14;;;;;;;;;8.25;7.50;;;;;;;;5072943;27;47406;-76
2021/06/22 10:00:40;;;;;;;;;7.00;7.00;;;;;;;;5073521;27;45733;-75
2021/06/22 10:03:05;;;;;;;;;4.75;4.75;;;;;;;;5074412;27;45438;-76
2021/06/22 10:05:31;;;;;;;;;5.00;4.00;;;;;;;;5069683;27;45366;-75
2021/06/22 10:08:02;;;;;;;;;8.00;4.50;;;;;;;;5070842;27;46564;-74
2021/06/22 10:10:37;;;;;;;;;7.00;6.00;;;;;;;;5073498;27;45717;-74
2021/06/22 10:13:02;;;;;;;;;5.25;3.25;;;;;;;;5082379;27;45385;-75
2021/06/22 10:15:28;;;;;;;;;5.00;4.50;;;;;;;;5085319;27;45458;-75
2021/06/22 10:17:53;;;;;;;;;7.50;5.00;;;;;;;;5073125;27;45375;-74
2021/06/22 10:20:18;;;;;;;;;7.33;6.00;;;;;;;;5071862;27;45588;-77
2021/06/22 10:22:46;;;;;;;;;6.67;6.67;;;;;;;;5082470;27;45460;-77
2021/06/22 10:25:11;;;;;;;;;8.50;6.00;;;;;;;;5082075;27;45561;-78
2021/06/22 10:27:37;;;;;;;;;3.50;3.50;;;;;;;;5069665;27;46073;-76
2021/06/22 10:30:05;;;;;;;;;5.33;3.00;;;;;;;;5072930;27;45355;-74
2021/06/22 10:32:31;;;;;;;;;5.75;5.75;;;;;;;;5075657;27;45365;-76
2021/06/22 10:35:11;;;;;;;;;6.00;4.50;;;;;;;;5080188;27;45394;-77
2021/06/22 10:37:38;;;;;;;;;6.75;5.50;;;;;;;;5061056;27;48600;-74
2021/06/22 10:40:16;;;;;;;;;7.00;5.00;;;;;;;;5082334;27;45642;-74
2021/06/22 10:42:43;;;;;;;;;5.50;4.25;;;;;;;;5083177;27;45718;-74
2021/06/22 10:45:09;;;;;;;;;5.25;5.25;;;;;;;;5072390;27;45617;-75
2021/06/22 10:47:34;;;;;;;;;6.50;5.00;;;;;;;;5074816;27;45891;-75
2021/06/22 10:50:10;;;;;;;;;8.00;5.00;;;;;;;;5066498;27;45506;-74
2021/06/22 10:52:42;;;;;;;;;6.25;4.50;;;;;;;;5072678;27;45414;-76
2021/06/22 10:55:07;;;;;;;;;5.25;4.75;;;;;;;;5080130;27;45688;-75
2021/06/22 10:57:52;;;;;;;;;5.25;5.25;;;;;;;;5068535;27;46493;-75
2021/06/22 11:00:17;;;;;;;;;5.25;5.25;;;;;;;;5068998;27;45760;-75
2021/06/22 11:03:01;;;;;;;;;6.00;5.00;;;;;;;;5073965;27;45434;-76
2021/06/22 11:05:26;;;;;;;;;5.50;4.50;;;;;;;;5071536;27;45526;-77
2021/06/22 11:08:10;;;;;;;;;5.25;5.00;;;;;;;;5078449;27;45393;-76
2021/06/22 11:10:36;;;;;;;;;6.00;4.75;;;;;;;;5064570;27;45357;-76
2021/06/22 11:13:02;;;;;;;;;7.75;7.00;;;;;;;;5079459;27;45498;-77
2021/06/22 11:15:47;;;;;;;;;9.25;5.75;;;;;;;;5080294;27;45457;-77
2021/06/22 11:18:19;;;;;;;;;4.75;4.75;;;;;;;;5074731;27;45480;-76
2021/06/22 11:20:53;;;;;;;;;5.75;5.00;;;;;;;;5074999;27;45869;-75
2021/06/22 11:23:22;;;;;;;;;4.50;4.50;;;;;;;;5080784;27;45538;-76
2021/06/22 11:25:47;;;;;;;;;5.25;4.25;;;;;;;;5070111;27;45509;-75
2021/06/22 11:28:12;;;;;;;;;6.67;5.67;;;;;;;;5080301;27;46466;-76
2021/06/22 11:30:47;;;;;;;;;6.00;5.00;;;;;;;;5087248;27;45445;-76
2021/06/22 11:33:27;;;;;;;;;6.75;4.25;;;;;;;;5079804;27;45405;-76
2021/06/22 11:36:12;;;;;;;;;4.00;4.00;;;;;;;;5076126;27;45469;-76
2021/06/22 11:38:38;;;;;;;;;8.50;6.25;;;;;;;;5073972;27;45481;-76
2021/06/22 11:41:10;;;;;;;;;4.33;4.33;;;;;;;;5082554;27;45297;-75
2021/06/22 11:43:35;;;;;;;;;4.00;4.00;;;;;;;;5058949;27;45496;-76
2021/06/22 11:46:19;;;;;;;;;27.00;18.33;;;;;;;;5080535;27;45509;-76
2021/06/22 11:48:57;;;;;;;;;11.75;11.25;;;;;;;;5078211;27;46117;-76
2021/06/22 11:51:41;;;;;;;;;5.25;5.25;;;;;;;;5093332;27;45953;-76
2021/06/22 11:54:06;;;;;;;;;7.00;7.00;;;;;;;;5085094;27;45461;-76
2021/06/22 11:56:31;;;;;;;;;8.33;7.33;;;;;;;;5075648;27;45350;-76
2021/06/22 11:58:59;;;;;;;;;14.75;9.50;;;;;;;;5077765;27;47112;-76
2021/06/22 12:01:25;;;;;;;;;12.75;10.00;;;;;;;;5062631;27;45284;-77
2021/06/22 12:03:53;;;;;;;;;9.00;8.33;;;;;;;;5079066;27;45453;-77
2021/06/22 12:06:21;;;;;;;;;4.75;4.75;;;;;;;;5086616;27;45486;-77
2021/06/22 12:08:46;;;;;;;;;7.00;6.25;;;;;;;;5075706;27;47838;-74
2021/06/22 12:11:13;;;;;;;;;8.33;7.00;;;;;;;;5079760;27;45505;-75
2021/06/22 12:13:40;;;;;;;;;6.25;6.00;;;;;;;;5081211;27;45629;-74
2021/06/22 12:16:12;;;;;;;;;7.75;7.00;;;;;;;;5082879;27;45323;-74
2021/06/22 12:18:37;;;;;;;;;7.75;6.25;;;;;;;;5086986;27;45591;-75
2021/06/22 12:21:04;;;;;;;;;10.67;9.33;;;;;;;;5077120;27;45525;-74
2021/06/22 12:23:29;;;;;;;;;4.25;4.25;;;;;;;;5081391;27;45525;-76
2021/06/22 12:25:55;;;;;;;;;4.67;4.67;;;;;;;;5080556;27;45334;-74
2021/06/22 12:28:25;;;;;;;;;3.75;3.75;;;;;;;;5080546;27;47446;-76
2021/06/22 12:30:55;;;;;;;;;4.00;4.00;;;;;;;;5088092;27;45358;-76
2021/06/22 12:33:21;;;;;;;;;3.50;3.00;;;;;;;;5075445;27;45406;-77
2021/06/22 12:35:48;;;;;;;;;3.25;3.00;;;;;;;;5078114;27;45553;-75
2021/06/22 12:38:14;;;;;;;;;2.00;2.00;;;;;;;;5072094;27;45612;-78
2021/06/22 12:40:40;;;;;;;;;3.25;2.00;;;;;;;;5071999;27;45446;-75
2021/06/22 12:43:05;;;;;;;;;6.75;5.75;;;;;;;;5075992;27;45604;-76
2021/06/22 12:45:30;;;;;;;;;10.25;10.00;;;;;;;;5085307;27;45583;-78
2021/06/22 12:47:56;;;;;;;;;18.33;13.33;;;;;;;;5083432;27;45357;-76
2021/06/22 12:50:21;;;;;;;;;11.25;8.50;;;;;;;;5079755;27;45403;-77
2021/06/22 12:52:48;;;;;;;;;10.25;8.75;;;;;;;;5077538;27;45365;-76
2021/06/22 12:55:34;;;;;;;;;9.50;8.00;;;;;;;;5081361;27;45431;-76
2021/06/22 12:57:58;;;;;;;;;5.00;3.00;;;;;;;;5067958;27;45521;-78
2021/06/22 13:00:40;;;;;;;;;6.67;6.67;;;;;;;;5080034;27;45437;-74
2021/06/22 13:03:08;;;;;;;;;5.75;4.75;;;;;;;;5084315;27;46985;-77
2021/06/22 13:05:35;;;;;;;;;3.00;2.00;;;;;;;;5073614;27;45466;-76
2021/06/22 13:08:01;;;;;;;;;4.00;3.00;;;;;;;;5070725;27;45861;-76
2021/06/22 13:10:26;;;;;;;;;4.50;3.50;;;;;;;;5083533;27;45543;-76
2021/06/22 13:12:52;;;;;;;;;3.00;3.00;;;;;;;;5069016;27;45671;-77
2021/06/22 13:15:17;;;;;;;;;6.00;4.75;;;;;;;;5084369;27;45367;-77
2021/06/22 13:17:42;;;;;;;;;2.67;2.67;;;;;;;;5072853;27;46171;-76
2021/06/22 13:20:08;;;;;;;;;4.25;2.75;;;;;;;;5073228;27;46388;-77
2021/06/22 13:22:35;;;;;;;;;4.00;3.00;;;;;;;;5074840;27;47309;-77
2021/06/22 13:25:01;;;;;;;;;4.50;2.75;;;;;;;;5075240;27;45474;-76
2021/06/22 13:27:30;;;;;;;;;1.00;1.00;;;;;;;;5077466;27;45382;-76
2021/06/22 13:30:02;;;;;;;;;1.50;1.25;;;;;;;;5075166;27;46982;-77
2021/06/22 13:32:35;;;;;;;;;2.00;2.00;;;;;;;;5073015;27;45552;-77
2021/06/22 13:35:01;;;;;;;;;2.00;2.00;;;;;;;;5072771;27;45544;-76
2021/06/22 13:37:27;;;;;;;;;2.00;2.00;;;;;;;;5075102;27;45632;-76
2021/06/22 13:39:59;;;;;;;;;2.00;2.00;;;;;;;;5072853;27;45646;-76
2021/06/22 13:42:27;;;;;;;;;3.50;2.00;;;;;;;;5079644;27;45500;-77
2021/06/22 13:44:53;;;;;;;;;5.75;1.50;;;;;;;;5079277;27;45305;-76
2021/06/22 13:47:38;;;;;;;;;2.00;2.00;;;;;;;;5074308;27;47200;-76
2021/06/22 13:50:16;;;;;;;;;2.75;2.00;;;;;;;;5079777;27;45654;-76
2021/06/22 13:52:43;;;;;;;;;2.00;2.00;;;;;;;;5069915;27;45501;-76
2021/06/22 13:55:08;;;;;;;;;3.50;2.00;;;;;;;;5075272;27;45638;-76
2021/06/22 13:57:37;;;;;;;;;4.00;2.25;;;;;;;;5013537;27;48226;-76
2021/06/22 14:00:03;;;;;;;;;3.00;3.00;;;;;;;;5076051;27;45455;-76
2021/06/22 14:02:28;;;;;;;;;2.25;2.25;;;;;;;;5066582;27;45473;-77
2021/06/22 14:04:54;;;;;;;;;3.00;3.00;;;;;;;;5061092;27;45443;-76
2021/06/22 14:07:20;;;;;;;;;3.00;2.00;;;;;;;;5065907;27;45495;-76
2021/06/22 14:09:45;;;;;;;;;2.67;2.67;;;;;;;;5079676;27;45440;-76
2021/06/22 14:12:10;;;;;;;;;4.00;4.00;;;;;;;;5083035;27;45413;-77
2021/06/22 14:14:35;;;;;;;;;5.33;4.00;;;;;;;;5076404;27;45541;-76
2021/06/22 14:17:01;;;;;;;;;4.00;4.00;;;;;;;;5071450;27;46470;-76
2021/06/22 14:19:26;;;;;;;;;5.50;4.25;;;;;;;;5079210;27;45596;-77
2021/06/22 14:21:53;;;;;;;;;7.00;5.00;;;;;;;;5063176;27;45718;-76
2021/06/22 14:24:18;;;;;;;;;4.25;4.25;;;;;;;;5079911;27;45402;-77
2021/06/22 14:26:43;;;;;;;;;5.33;4.67;;;;;;;;5076061;27;45537;-77
2021/06/22 14:29:09;;;;;;;;;4.50;4.50;;;;;;;;5073874;27;46283;-76
2021/06/22 14:31:34;;;;;;;;;4.75;4.00;;;;;;;;5068995;27;45432;-76
2021/06/22 14:34:01;;;;;;;;;11.25;7.00;;;;;;;;5083659;27;45368;-77